Aérodrome :
LOGIN :

S'inscrire | Disclaimer

   EN    FR    IT 

 










Légende :    VFR   VFR Marginal   IFR   IFR Intensif   IFR Très Intensif
Visi : 
Plafond : 
>= 8 km
>= 3000ft
5 à 8 km
1000 à 3000 ft
1500m à 5 km
500 à 1000 ft
800 à 1500m
200 à 500 ft
< 800m
< 200 ft
Symboles :   Orages  Brouillard  Fortes neiges  Fortes précipitations  Vent > 20 kt
SIGMETs :   Divers  Orages  Givrage  Turbulence  Onde Orograph.  Cendres Volcan.







- Altitude de l'aérodrome : 433 ft
- Voir les cartes d'approche


LFOC - Chateaudun

DERNIER METAR :
  • 180630Z AUTO 23008KT 9999 -RA BKN008/// BKN014/// OVC062/// ///TCU 18/18 Q1015 TEMPO 3000 RA

METARs EXPIRÉS :
  • 180600Z AUTO 22008KT 9999 -RA FEW005/// SCT015/// BKN033/// ///TCU 18/17 Q1015 TEMPO 3000 RA BKN005 BKN015TCU
  • 180530Z AUTO 22008KT 9999 -RA BKN007/// BKN012/// OVC088/// ///TCU 18/17 Q1015 TEMPO 3000 RA
  • 180500Z AUTO 22008KT 9999 -RA OVC009/// ///TCU 18/17 Q1015
  • 180430Z AUTO 22006KT 9999 -RA SCT007/// BKN012/// BKN036/// ///TCU 18/17 Q1015
  • 180400Z AUTO 22009KT 5000 RA BR SCT006/// BKN010/// BKN021/// ///TCU 18/17 Q1015

TAF AMD TAF LFOC
Valide du 18 à 05h jusqu'au 19 à 03h UTC


180455Z 1805/1903 22010KT 5000 -RA BKN008 BKN020
TEMPO 1805/1810 3000 RA BKN005 BKN015TCU
BECMG 1810/1812 9999 NSW SCT010 SCT030
TEMPO 1812/1818 3000 SHRA SCT013 BKN030TCU
Pas de NOTAMs connus pour ce terrain.



MET'MAP, la Météo Aéronautique d'un coup d'oeil ! - Copyright ORBIFLY Décembre 2007 - Disclaimer

ORBIFLY MET'MAP TEAM :

Programmation & Développement : Alexandra Zaïnal
Conception & Développement : Baudouin d'Aumeries
Co-Programmation & Développement : Marc-Olivier Méhu
Soutien technique & logistique : Manuel Goepfert

Contact : metmap@orbifly.com




SOURCES & CREDITS :

   NOAA